Time;durP1;ratioP1;P1;durP2;ratioP2;P2;SDS_P1;SDS_P2;PMS_P1;PMS_P2;Temp;Humidity;BMP_temperature;BMP_pressure;BME280_temperature;BME280_humidity;BME280_pressure;Samples;Min_cycle;Max_cycle;Signal;HPM_P1;HPM_P2
2021/11/13 00:00:58;;;;;;;;;;;;;;;20.17;54.96;100118.50;2059209;28;20361;-38
2021/11/13 00:01:58;;;;;;;;;;;;;;;20.18;54.81;100122.94;2058896;28;20012;-38
2021/11/13 00:02:59;;;;;;;;;;;;;;;20.18;54.84;100122.94;2060523;28;20368;-39
2021/11/13 00:03:59;;;;;;;;;;;;;;;20.15;54.86;100117.78;2058365;28;20184;-38
2021/11/13 00:04:59;;;;;;;;;;;;;;;20.13;55.01;100118.78;2059006;28;19914;-38
2021/11/13 00:06:00;;;;;;;;;;;;;;;20.15;54.93;100115.06;2067876;28;19959;-38
2021/11/13 00:07:00;;;;;;;;;;;;;;;20.13;55.09;100112.47;2061749;28;20630;-38
2021/11/13 00:08:01;;;;;;;;;;;;;;;20.12;55.21;100111.59;2056704;28;19955;-39
2021/11/13 00:09:02;;;;;;;;;;;;;;;20.13;55.13;100112.47;2058770;28;20012;-38
2021/11/13 00:10:04;;;;;;;;;;;;;;;20.12;55.11;100117.09;2059915;28;19961;-38
2021/11/13 00:11:05;;;;;;;;;;;;;;;20.11;55.11;100112.63;2064568;28;19920;-38
2021/11/13 00:12:06;;;;;;;;;;;;;;;20.10;55.26;100113.63;2063036;28;19949;-38
2021/11/13 00:13:08;;;;;;;;;;;;;;;20.10;54.95;100119.09;2060905;28;19909;-41
2021/11/13 00:14:16;;;;;;;;;;;;;;;20.10;55.29;100124.59;2060262;28;19910;-38
2021/11/13 00:15:20;;;;;;;;;;;;;;;20.09;55.25;100116.53;2062351;28;19918;-38
2021/11/13 00:16:23;;;;;;;;;;;;;;;20.08;55.26;100121.13;2059609;28;19909;-38
2021/11/13 00:17:23;;;;;;;;;;;;;;;20.08;55.33;100121.13;2061904;28;20402;-38
2021/11/13 00:18:24;;;;;;;;;;;;;;;20.08;55.32;100126.59;2059995;28;20295;-42
2021/11/13 00:19:25;;;;;;;;;;;;;;;20.07;55.14;100113.97;2065141;28;19960;-38
2021/11/13 00:20:27;;;;;;;;;;;;;;;20.08;55.23;100120.28;2067323;28;20449;-38
2021/11/13 00:21:29;;;;;;;;;;;;;;;20.07;55.16;100118.56;2066053;28;20085;-38
2021/11/13 00:22:29;;;;;;;;;;;;;;;20.07;55.24;100113.97;2057862;28;20172;-38
2021/11/13 00:23:29;;;;;;;;;;;;;;;20.06;55.33;100117.72;2060814;28;20680;-39
2021/11/13 00:24:30;;;;;;;;;;;;;;;20.06;55.18;100119.56;2058534;28;20015;-38
2021/11/13 00:25:30;;;;;;;;;;;;;;;20.05;55.34;100126.94;2060465;28;19928;-38
2021/11/13 00:26:30;;;;;;;;;;;;;;;20.05;55.27;100117.88;2062112;28;19929;-38
2021/11/13 00:27:31;;;;;;;;;;;;;;;20.06;55.28;100127.78;2055360;28;19991;-39
2021/11/13 00:28:31;;;;;;;;;;;;;;;20.05;55.32;100129.66;2054767;28;19925;-38
2021/11/13 00:29:31;;;;;;;;;;;;;;;20.04;55.16;100130.69;2053734;28;19913;-39
2021/11/13 00:30:32;;;;;;;;;;;;;;;20.04;55.29;100127.97;2055623;28;19916;-39
2021/11/13 00:31:32;;;;;;;;;;;;;;;20.05;55.17;100132.41;2061262;28;19967;-39
2021/11/13 00:32:33;;;;;;;;;;;;;;;20.04;55.16;100130.69;2054673;28;20191;-38
2021/11/13 00:33:33;;;;;;;;;;;;;;;20.04;55.33;100127.06;2053420;28;19925;-38
2021/11/13 00:34:34;;;;;;;;;;;;;;;20.05;55.17;100126.06;2059987;28;19927;-39
2021/11/13 00:35:34;;;;;;;;;;;;;;;20.03;55.35;100118.00;2057262;28;20808;-37
2021/11/13 00:36:35;;;;;;;;;;;;;;;20.06;55.28;100127.78;2060110;28;20228;-38
2021/11/13 00:37:35;;;;;;;;;;;;;;;20.05;55.34;100129.66;2062161;28;19943;-37
2021/11/13 00:38:35;;;;;;;;;;;;;;;20.07;55.10;100126.78;2056138;28;19933;-39
2021/11/13 00:39:35;;;;;;;;;;;;;;;20.06;55.33;100123.19;2057134;28;19925;-37
2021/11/13 00:40:36;;;;;;;;;;;;;;;20.04;55.26;100122.47;2059987;28;19918;-38
2021/11/13 00:41:36;;;;;;;;;;;;;;;20.04;55.28;100125.22;2056856;28;19924;-38
2021/11/13 00:42:37;;;;;;;;;;;;;;;20.04;55.44;100119.75;2059515;28;19909;-37
2021/11/13 00:43:37;;;;;;;;;;;;;;;20.04;55.40;100114.28;2058665;28;19989;-38
2021/11/13 00:44:38;;;;;;;;;;;;;;;20.03;55.26;100112.53;2058707;28;19945;-38
2021/11/13 00:45:38;;;;;;;;;;;;;;;20.02;55.31;100112.72;2059781;28;19925;-38
2021/11/13 00:46:39;;;;;;;;;;;;;;;20.02;55.37;100112.72;2056934;28;20620;-37
2021/11/13 00:47:39;;;;;;;;;;;;;;;20.02;55.47;100120.91;2056640;28;20741;-37
2021/11/13 00:48:40;;;;;;;;;;;;;;;20.00;55.24;100123.81;2056760;28;20346;-37
2021/11/13 00:49:40;;;;;;;;;;;;;;;20.00;55.31;100118.31;2059028;28;19945;-37
2021/11/13 00:50:40;;;;;;;;;;;;;;;20.00;55.29;100123.81;2060193;28;20280;-37
2021/11/13 00:51:41;;;;;;;;;;;;;;;19.99;55.37;100113.88;2059909;28;19964;-37
2021/11/13 00:52:41;;;;;;;;;;;;;;;19.99;55.47;100113.00;2061104;28;19925;-37
2021/11/13 00:53:42;;;;;;;;;;;;;;;19.99;55.47;100116.63;2061927;28;20898;-37
2021/11/13 00:54:42;;;;;;;;;;;;;;;19.99;55.38;100119.34;2060253;28;19921;-37
2021/11/13 00:55:42;;;;;;;;;;;;;;;19.98;55.53;100114.88;2061461;28;19921;-37
2021/11/13 00:56:43;;;;;;;;;;;;;;;19.98;55.31;100114.88;2058832;28;19922;-37
2021/11/13 00:57:43;;;;;;;;;;;;;;;19.98;55.57;100124.97;2059796;28;19925;-37
2021/11/13 00:58:43;;;;;;;;;;;;;;;19.98;55.37;100125.81;2068602;28;19925;-37
2021/11/13 00:59:44;;;;;;;;;;;;;;;19.97;55.34;100121.38;2059037;28;20213;-37
2021/11/13 01:00:45;;;;;;;;;;;;;;;19.98;55.41;100117.63;2059792;28;20318;-37
2021/11/13 01:01:45;;;;;;;;;;;;;;;19.98;55.41;100116.75;2059859;28;20429;-37
2021/11/13 01:02:45;;;;;;;;;;;;;;;19.99;55.42;100116.63;2060433;28;20422;-37
2021/11/13 01:03:46;;;;;;;;;;;;;;;19.98;55.53;100117.63;2059208;28;20189;-37
2021/11/13 01:04:46;;;;;;;;;;;;;;;19.98;55.33;100117.63;2054951;28;19925;-37
2021/11/13 01:05:46;;;;;;;;;;;;;;;19.99;55.38;100116.63;2057223;28;20753;-37
2021/11/13 01:06:48;;;;;;;;;;;;;;;19.99;55.41;100119.34;2061692;28;20471;-38
2021/11/13 01:07:48;;;;;;;;;;;;;;;19.99;55.31;100121.22;2060405;28;19999;-37
2021/11/13 01:08:48;;;;;;;;;;;;;;;20.00;55.38;100121.06;2055464;28;20411;-37
2021/11/13 01:09:49;;;;;;;;;;;;;;;20.01;55.36;100119.19;2058636;28;19914;-37
2021/11/13 01:10:50;;;;;;;;;;;;;;;20.01;55.52;100109.09;2060134;28;19918;-37
2021/11/13 01:11:50;;;;;;;;;;;;;;;20.02;55.43;100109.97;2061004;28;19913;-38
2021/11/13 01:12:51;;;;;;;;;;;;;;;20.03;55.41;100119.88;2058878;28;19921;-37
2021/11/13 01:13:51;;;;;;;;;;;;;;;20.04;55.19;100118.88;2060138;28;19960;-37
2021/11/13 01:14:51;;;;;;;;;;;;;;;20.03;55.41;100119.88;2059708;28;19924;-37
2021/11/13 01:15:52;;;;;;;;;;;;;;;20.03;55.24;100117.16;2061801;28;20346;-38
2021/11/13 01:16:53;;;;;;;;;;;;;;;20.04;55.39;100117.00;2058837;28;19921;-37
2021/11/13 01:17:54;;;;;;;;;;;;;;;20.06;55.16;100122.31;2062685;28;19918;-37
2021/11/13 01:18:55;;;;;;;;;;;;;;;20.06;55.14;100117.72;2060980;28;19929;-37
2021/11/13 01:19:55;;;;;;;;;;;;;;;20.06;55.22;100119.56;2059759;28;19917;-37
2021/11/13 01:20:55;;;;;;;;;;;;;;;20.06;55.13;100117.72;2060203;28;19971;-37
2021/11/13 01:21:56;;;;;;;;;;;;;;;20.07;55.16;100113.97;2059302;28;19971;-37
2021/11/13 01:22:56;;;;;;;;;;;;;;;20.08;55.14;100115.66;2062204;28;19925;-37
2021/11/13 01:23:56;;;;;;;;;;;;;;;20.08;55.28;100115.66;2058764;28;20454;-38
2021/11/13 01:24:57;;;;;;;;;;;;;;;20.09;55.18;100117.41;2060971;28;20231;-37
2021/11/13 01:25:57;;;;;;;;;;;;;;;20.11;55.03;100112.63;2059407;28;19918;-37
2021/11/13 01:26:57;;;;;;;;;;;;;;;20.12;55.00;100103.41;2061519;28;19922;-37
2021/11/13 01:27:58;;;;;;;;;;;;;;;20.15;55.08;100115.91;2061744;28;19952;-38
2021/11/13 01:28:58;;;;;;;;;;;;;;;20.18;54.96;100114.72;2060709;28;19917;-37
2021/11/13 01:29:58;;;;;;;;;;;;;;;20.21;54.96;100104.34;2057889;28;19923;-38
2021/11/13 01:30:59;;;;;;;;;;;;;;;20.23;54.91;100110.50;2059732;28;19920;-38
2021/11/13 01:32:00;;;;;;;;;;;;;;;20.27;54.90;100116.53;2058936;28;20012;-38
2021/11/13 01:33:00;;;;;;;;;;;;;;;20.29;54.60;100106.28;2061542;28;20617;-37
2021/11/13 01:34:00;;;;;;;;;;;;;;;20.31;54.52;100107.84;2058254;28;19917;-37
2021/11/13 01:35:01;;;;;;;;;;;;;;;20.33;54.62;100111.31;2058190;28;19937;-37
2021/11/13 01:36:02;;;;;;;;;;;;;;;20.37;54.58;100109.09;2061596;28;19964;-37
2021/11/13 01:37:02;;;;;;;;;;;;;;;20.40;54.48;100119.72;2057568;28;19909;-37
2021/11/13 01:38:03;;;;;;;;;;;;;;;20.42;54.29;100106.75;2059329;28;19917;-37
2021/11/13 01:39:03;;;;;;;;;;;;;;;20.44;54.29;100103.84;2068758;28;19935;-37
2021/11/13 01:40:05;;;;;;;;;;;;;;;20.48;54.48;100111.59;2066949;28;20773;-37
2021/11/13 01:41:06;;;;;;;;;;;;;;;20.49;54.24;100107.81;2060484;28;19917;-37
2021/11/13 01:42:07;;;;;;;;;;;;;;;20.52;54.09;100104.75;2060131;28;19924;-37
2021/11/13 01:43:08;;;;;;;;;;;;;;;20.54;54.25;100102.72;2061933;28;19959;-37
2021/11/13 01:44:08;;;;;;;;;;;;;;;20.54;54.24;100105.47;2061027;28;19932;-37
2021/11/13 01:45:09;;;;;;;;;;;;;;;20.57;53.97;100104.31;2062420;28;19918;-37
2021/11/13 01:46:10;;;;;;;;;;;;;;;20.59;54.16;100109.66;2061034;28;19960;-37
2021/11/13 01:47:11;;;;;;;;;;;;;;;20.62;54.04;100112.06;2062044;28;20622;-37
2021/11/13 01:48:12;;;;;;;;;;;;;;;20.63;53.85;100108.28;2058922;28;19917;-37
2021/11/13 01:49:12;;;;;;;;;;;;;;;20.63;53.79;100108.28;2057789;28;20332;-37
2021/11/13 01:50:20;;;;;;;;;;;;;;;20.64;53.82;100099.06;2058938;28;19918;-37
2021/11/13 01:51:20;;;;;;;;;;;;;;;20.65;53.79;100106.25;2059612;28;19917;-37
2021/11/13 01:52:21;;;;;;;;;;;;;;;20.65;53.98;100111.72;2059715;28;19917;-37
2021/11/13 01:53:22;;;;;;;;;;;;;;;20.66;53.83;100108.00;2061133;28;19920;-38
2021/11/13 01:54:22;;;;;;;;;;;;;;;20.67;53.85;100112.44;2060523;28;19964;-37
2021/11/13 01:55:23;;;;;;;;;;;;;;;20.68;53.83;100111.44;2063982;28;19917;-38
2021/11/13 01:56:24;;;;;;;;;;;;;;;20.68;54.00;100111.44;2064196;28;19959;-37
2021/11/13 01:57:32;;;;;;;;;;;;;;;20.67;53.92;100113.28;2060753;28;19961;-37
2021/11/13 01:58:32;;;;;;;;;;;;;;;20.68;53.95;100111.44;2052847;28;19917;-37
2021/11/13 01:59:33;;;;;;;;;;;;;;;20.69;53.74;100107.66;2061785;28;20311;-37
2021/11/13 02:00:36;;;;;;;;;;;;;;;20.68;53.79;100101.34;2058402;28;19921;-37
2021/11/13 02:01:36;;;;;;;;;;;;;;;20.69;53.83;100107.66;2067150;28;19924;-37
2021/11/13 02:02:37;;;;;;;;;;;;;;;20.70;53.75;100114.84;2060328;28;20016;-37
2021/11/13 02:03:37;;;;;;;;;;;;;;;20.69;53.73;100107.66;2058653;28;19989;-37
2021/11/13 02:04:38;;;;;;;;;;;;;;;20.69;54.02;100113.16;2062148;28;19921;-37
2021/11/13 02:05:38;;;;;;;;;;;;;;;20.69;54.03;100113.16;2063080;28;20735;-37
2021/11/13 02:06:39;;;;;;;;;;;;;;;20.69;53.98;100108.53;2060642;28;20073;-37
2021/11/13 02:07:39;;;;;;;;;;;;;;;20.69;53.86;100100.31;2060210;28;20108;-37
2021/11/13 02:08:41;;;;;;;;;;;;;;;20.68;53.73;100101.34;2058424;28;19977;-37
2021/11/13 02:09:41;;;;;;;;;;;;;;;20.69;54.01;100102.19;2061380;28;20843;-37
2021/11/13 02:10:42;;;;;;;;;;;;;;;20.69;53.79;100104.94;2059851;28;20363;-37
2021/11/13 02:11:42;;;;;;;;;;;;;;;20.69;53.73;100107.66;2065664;28;19948;-37
2021/11/13 02:12:42;;;;;;;;;;;;;;;20.68;53.71;100100.47;2061110;28;19917;-37
2021/11/13 02:13:44;;;;;;;;;;;;;;;20.67;53.85;100099.59;2050415;28;19980;-37
2021/11/13 02:14:44;;;;;;;;;;;;;;;20.68;53.90;100100.47;2055710;28;19992;-37
2021/11/13 02:15:44;;;;;;;;;;;;;;;20.68;53.70;100098.59;2060379;28;20008;-37
2021/11/13 02:16:45;;;;;;;;;;;;;;;20.69;53.80;100097.56;2057707;28;20304;-37
2021/11/13 02:17:45;;;;;;;;;;;;;;;20.69;53.80;100093.97;2060792;28;19924;-38
2021/11/13 02:18:45;;;;;;;;;;;;;;;20.68;53.74;100093.13;2059226;28;19953;-37
2021/11/13 02:19:50;;;;;;;;;;;;;;;20.69;53.80;100096.72;2060710;28;19967;-37
2021/11/13 02:20:50;;;;;;;;;;;;;;;20.69;54.04;100096.72;2053090;28;20277;-37
2021/11/13 02:21:50;;;;;;;;;;;;;;;20.67;54.06;100090.53;2058176;28;19925;-38
2021/11/13 02:22:51;;;;;;;;;;;;;;;20.66;53.88;100089.69;2059524;28;20340;-37
2021/11/13 02:23:52;;;;;;;;;;;;;;;20.67;54.13;100090.53;2055465;28;19928;-37
2021/11/13 02:24:52;;;;;;;;;;;;;;;20.67;53.70;100082.31;2061543;28;20307;-42
2021/11/13 02:25:53;;;;;;;;;;;;;;;20.67;53.88;100087.78;2059239;28;20700;-38
2021/11/13 02:26:54;;;;;;;;;;;;;;;20.66;53.82;100078.72;2057285;28;20398;-37
2021/11/13 02:27:55;;;;;;;;;;;;;;;20.66;53.77;100080.59;2061542;28;19914;-38
2021/11/13 02:28:56;;;;;;;;;;;;;;;20.66;54.08;100077.88;2059981;28;19918;-37
2021/11/13 02:29:56;;;;;;;;;;;;;;;20.66;54.00;100081.47;2057822;28;19918;-37
2021/11/13 02:30:58;;;;;;;;;;;;;;;20.67;54.08;100079.56;2061109;28;20264;-37
2021/11/13 02:31:58;;;;;;;;;;;;;;;20.65;53.85;100079.75;2059484;28;19921;-37
2021/11/13 02:32:58;;;;;;;;;;;;;;;20.64;53.84;100068.94;2063094;28;20412;-37
2021/11/13 02:33:59;;;;;;;;;;;;;;;20.64;53.83;100071.69;2066047;28;19905;-37
2021/11/13 02:34:59;;;;;;;;;;;;;;;20.65;53.79;100073.38;2058387;28;19971;-37
2021/11/13 02:36:00;;;;;;;;;;;;;;;20.65;53.85;100077.00;2060367;28;19991;-38
2021/11/13 02:37:00;;;;;;;;;;;;;;;20.63;53.83;100073.56;2058898;28;19937;-37
2021/11/13 02:38:09;;;;;;;;;;;;;;;20.64;54.10;100071.69;2058501;28;19909;-38
2021/11/13 02:39:12;;;;;;;;;;;;;;;20.63;54.08;100075.44;2052743;28;19921;-37
2021/11/13 02:40:13;;;;;;;;;;;;;;;20.64;53.82;100074.44;2059589;28;19993;-38
2021/11/13 02:41:14;;;;;;;;;;;;;;;20.62;53.88;100063.63;2059408;28;19944;-37
2021/11/13 02:42:14;;;;;;;;;;;;;;;20.62;53.84;100069.09;2068400;28;19917;-37
2021/11/13 02:43:16;;;;;;;;;;;;;;;20.61;53.95;100066.53;2059333;28;19917;-37
2021/11/13 02:44:17;;;;;;;;;;;;;;;20.61;53.94;100069.28;2060384;28;19918;-37
2021/11/13 02:45:17;;;;;;;;;;;;;;;20.61;54.20;100066.53;2067187;28;19917;-37
2021/11/13 02:46:18;;;;;;;;;;;;;;;20.60;54.22;100064.81;2061201;28;19915;-38
2021/11/13 02:47:19;;;;;;;;;;;;;;;20.60;54.10;100071.13;2061601;28;20714;-37
2021/11/13 02:48:19;;;;;;;;;;;;;;;20.61;54.05;100077.50;2057861;28;19921;-38
2021/11/13 02:49:20;;;;;;;;;;;;;;;20.61;53.93;100072.00;2056947;28;19969;-38
2021/11/13 02:50:21;;;;;;;;;;;;;;;20.61;53.95;100072.00;2055977;28;19987;-37
2021/11/13 02:51:21;;;;;;;;;;;;;;;20.63;53.94;100069.94;2060141;28;20254;-37
2021/11/13 02:52:21;;;;;;;;;;;;;;;20.63;53.85;100072.69;2064268;28;20030;-37
2021/11/13 02:53:23;;;;;;;;;;;;;;;20.64;53.93;100077.16;2057778;28;19905;-37
2021/11/13 02:54:23;;;;;;;;;;;;;;;20.63;54.17;100075.44;2061590;28;19921;-37
2021/11/13 02:55:24;;;;;;;;;;;;;;;20.63;53.94;100073.56;2054468;28;19917;-38
2021/11/13 02:56:25;;;;;;;;;;;;;;;20.64;54.13;100075.28;2059341;28;19925;-37
2021/11/13 02:57:25;;;;;;;;;;;;;;;20.64;53.99;100072.53;2059336;28;19917;-37
2021/11/13 02:58:25;;;;;;;;;;;;;;;20.66;54.13;100069.66;2063472;28;19920;-37
2021/11/13 02:59:26;;;;;;;;;;;;;;;20.65;53.81;100065.16;2063806;28;19917;-37
2021/11/13 03:00:27;;;;;;;;;;;;;;;20.66;53.92;100064.16;2064687;28;19981;-37
2021/11/13 03:01:27;;;;;;;;;;;;;;;20.65;54.06;100062.44;2068333;28;20307;-37
2021/11/13 03:02:28;;;;;;;;;;;;;;;20.65;53.93;100067.91;2060154;28;19921;-38
2021/11/13 03:03:28;;;;;;;;;;;;;;;20.65;54.13;100067.91;2062391;28;20227;-37
2021/11/13 03:04:28;;;;;;;;;;;;;;;20.65;53.93;100067.91;2062459;28;20015;-37
2021/11/13 03:05:34;;;;;;;;;;;;;;;20.64;54.13;100069.81;2064416;28;20783;-37
2021/11/13 03:06:34;;;;;;;;;;;;;;;20.65;53.90;100074.28;2054999;28;20332;-37
2021/11/13 03:07:34;;;;;;;;;;;;;;;20.64;54.14;100067.06;2060943;28;19914;-37
2021/11/13 03:08:35;;;;;;;;;;;;;;;20.64;54.14;100072.53;2060942;28;19957;-37
2021/11/13 03:09:35;;;;;;;;;;;;;;;20.64;53.92;100072.53;2062007;28;19924;-37
2021/11/13 03:10:37;;;;;;;;;;;;;;;20.65;53.91;100079.75;2058779;28;19918;-37
2021/11/13 03:11:37;;;;;;;;;;;;;;;20.65;54.21;100078.88;2067989;28;20316;-37
2021/11/13 03:12:37;;;;;;;;;;;;;;;20.66;54.10;100077.88;2059655;28;19917;-37
2021/11/13 03:13:39;;;;;;;;;;;;;;;20.65;54.15;100084.34;2061960;28;19918;-37
2021/11/13 03:14:40;;;;;;;;;;;;;;;20.64;54.06;100077.16;2060816;28;19918;-37
2021/11/13 03:15:40;;;;;;;;;;;;;;;20.65;54.08;100078.88;2061124;28;19977;-37
2021/11/13 03:16:40;;;;;;;;;;;;;;;20.63;54.07;100073.56;2061214;28;20373;-37
2021/11/13 03:17:40;;;;;;;;;;;;;;;20.63;54.17;100069.94;2062613;28;20657;-37
2021/11/13 03:18:41;;;;;;;;;;;;;;;20.62;54.09;100068.25;2060334;28;20487;-37
2021/11/13 03:19:41;;;;;;;;;;;;;;;20.62;53.94;100068.25;2059960;28;19967;-37
2021/11/13 03:20:42;;;;;;;;;;;;;;;20.63;54.08;100075.44;2061904;28;20236;-37
2021/11/13 03:21:43;;;;;;;;;;;;;;;20.61;54.20;100074.75;2059885;28;19924;-37
2021/11/13 03:22:44;;;;;;;;;;;;;;;20.62;54.08;100076.47;2062226;28;20327;-37
2021/11/13 03:23:46;;;;;;;;;;;;;;;20.62;54.03;100079.19;2061812;28;19918;-37
2021/11/13 03:24:46;;;;;;;;;;;;;;;20.60;54.09;100076.59;2059654;28;19918;-37
2021/11/13 03:26:13;;;;;;;;;;;;;;;20.60;53.97;100070.28;2062318;28;20343;-37
2021/11/13 03:27:13;;;;;;;;;;;;;;;20.59;53.98;100071.31;2057597;28;19940;-37
2021/11/13 03:28:15;;;;;;;;;;;;;;;20.58;54.09;100075.06;2060548;28;20336;-37
2021/11/13 03:29:16;;;;;;;;;;;;;;;20.58;54.16;100069.56;2061899;28;19964;-37
2021/11/13 03:30:17;;;;;;;;;;;;;;;20.58;54.17;100069.56;2059820;28;19922;-37
2021/11/13 03:31:22;;;;;;;;;;;;;;;20.57;54.08;100065.13;2060530;28;19917;-37
2021/11/13 03:32:22;;;;;;;;;;;;;;;20.58;54.13;100077.78;2063388;28;19928;-37
2021/11/13 03:33:22;;;;;;;;;;;;;;;20.57;54.20;100065.13;2060221;28;19972;-37
2021/11/13 03:34:23;;;;;;;;;;;;;;;20.56;54.14;100064.28;2060267;28;20012;-38
2021/11/13 03:35:30;;;;;;;;;;;;;;;20.54;54.09;100072.59;2062011;28;20362;-37
2021/11/13 03:36:30;;;;;;;;;;;;;;;20.55;54.26;100074.38;2060462;28;20004;-37
2021/11/13 03:37:31;;;;;;;;;;;;;;;20.54;54.10;100077.22;2060744;28;20209;-37
2021/11/13 03:38:31;;;;;;;;;;;;;;;20.54;54.34;100069.00;2060111;28;19926;-37
2021/11/13 03:39:32;;;;;;;;;;;;;;;20.53;54.35;100072.78;2060182;28;19921;-37
2021/11/13 03:40:32;;;;;;;;;;;;;;;20.52;54.36;100066.44;2059546;28;19967;-39
2021/11/13 03:41:33;;;;;;;;;;;;;;;20.52;54.19;100073.78;2061079;28;19924;-37
2021/11/13 03:42:33;;;;;;;;;;;;;;;20.51;54.33;100064.72;2062763;28;19945;-38
2021/11/13 03:43:35;;;;;;;;;;;;;;;20.51;54.25;100072.94;2059576;28;19909;-37
2021/11/13 03:44:35;;;;;;;;;;;;;;;20.51;54.35;100072.94;2061060;28;20240;-37
2021/11/13 03:45:36;;;;;;;;;;;;;;;20.50;54.30;100071.19;2059043;28;19913;-37
2021/11/13 03:46:37;;;;;;;;;;;;;;;20.50;54.18;100073.09;2060733;28;20316;-37
2021/11/13 03:47:37;;;;;;;;;;;;;;;20.50;54.34;100076.69;2059916;28;19976;-37
2021/11/13 03:48:38;;;;;;;;;;;;;;;20.50;54.32;100075.81;2062149;28;19921;-38
2021/11/13 03:49:38;;;;;;;;;;;;;;;20.50;54.34;100076.69;2059797;28;19918;-38
2021/11/13 03:50:38;;;;;;;;;;;;;;;20.48;54.36;100073.25;2062231;28;20275;-38
2021/11/13 03:51:39;;;;;;;;;;;;;;;20.49;54.28;100076.84;2058978;28;19910;-38
2021/11/13 03:52:39;;;;;;;;;;;;;;;20.48;54.39;100078.75;2060828;28;19917;-38
2021/11/13 03:53:40;;;;;;;;;;;;;;;20.48;54.48;100078.75;2059652;28;20213;-38
2021/11/13 03:54:40;;;;;;;;;;;;;;;20.47;54.49;100077.00;2056917;28;19910;-38
2021/11/13 03:55:41;;;;;;;;;;;;;;;20.47;54.58;100074.25;2057467;28;19921;-38
2021/11/13 03:56:41;;;;;;;;;;;;;;;20.46;54.54;100069.81;2058841;28;20796;-38
2021/11/13 03:57:42;;;;;;;;;;;;;;;20.45;54.43;100079.03;2061796;28;20739;-38
2021/11/13 03:58:42;;;;;;;;;;;;;;;20.47;54.46;100084.38;2060855;28;19921;-38
2021/11/13 03:59:42;;;;;;;;;;;;;;;20.47;54.59;100081.63;2062210;28;19931;-37
2021/11/13 04:00:43;;;;;;;;;;;;;;;20.45;54.41;100084.50;2055915;28;20713;-38
2021/11/13 04:01:43;;;;;;;;;;;;;;;20.45;54.61;100084.50;2061187;28;20438;-38
2021/11/13 04:02:46;;;;;;;;;;;;;;;20.45;54.66;100080.91;2058938;28;19921;-38
2021/11/13 04:03:46;;;;;;;;;;;;;;;20.43;54.44;100083.84;2056923;28;20343;-38
2021/11/13 04:04:46;;;;;;;;;;;;;;;20.43;54.49;100078.34;2061727;28;19916;-38
2021/11/13 04:05:47;;;;;;;;;;;;;;;20.43;54.63;100081.09;2059507;28;19918;-38
2021/11/13 04:06:47;;;;;;;;;;;;;;;20.43;54.50;100080.22;2060854;28;19967;-37
2021/11/13 04:07:48;;;;;;;;;;;;;;;20.42;54.52;100087.56;2062845;28;20379;-38
2021/11/13 04:08:49;;;;;;;;;;;;;;;20.41;54.60;100083.13;2059780;28;19918;-38
2021/11/13 04:09:49;;;;;;;;;;;;;;;20.41;54.70;100088.59;2060826;28;19975;-38
2021/11/13 04:10:49;;;;;;;;;;;;;;;20.41;54.62;100088.59;2059824;28;19920;-38
2021/11/13 04:11:50;;;;;;;;;;;;;;;20.41;54.63;100079.53;2064601;28;20252;-38
2021/11/13 04:12:51;;;;;;;;;;;;;;;20.39;54.73;100085.16;2057448;28;20320;-38
2021/11/13 04:13:51;;;;;;;;;;;;;;;20.39;54.74;100079.69;2064681;28;19933;-38
2021/11/13 04:14:51;;;;;;;;;;;;;;;20.40;54.65;100086.88;2068763;28;19952;-38
2021/11/13 04:15:52;;;;;;;;;;;;;;;20.38;54.95;100088.91;2067442;28;19987;-38
2021/11/13 04:16:52;;;;;;;;;;;;;;;20.37;54.59;100087.19;2068218;28;19913;-38
2021/11/13 04:17:53;;;;;;;;;;;;;;;20.37;54.65;100092.66;2061846;28;20209;-38
2021/11/13 04:18:53;;;;;;;;;;;;;;;20.37;54.70;100092.66;2060550;28;19972;-38
2021/11/13 04:19:54;;;;;;;;;;;;;;;20.37;54.84;100089.06;2060061;28;19967;-38
2021/11/13 04:20:54;;;;;;;;;;;;;;;20.36;54.83;100093.69;2062140;28;20328;-38
2021/11/13 04:21:55;;;;;;;;;;;;;;;20.36;54.74;100082.75;2061316;28;20007;-38
2021/11/13 04:22:56;;;;;;;;;;;;;;;20.35;54.65;100089.22;2062860;28;20016;-38
2021/11/13 04:23:56;;;;;;;;;;;;;;;20.34;54.76;100088.38;2061931;28;19924;-38
2021/11/13 04:24:56;;;;;;;;;;;;;;;20.35;54.91;100083.75;2062368;28;19917;-38
2021/11/13 04:25:57;;;;;;;;;;;;;;;20.34;54.89;100082.03;2058017;28;19924;-38
2021/11/13 04:26:57;;;;;;;;;;;;;;;20.33;54.82;100086.66;2061406;28;20122;-38
2021/11/13 04:27:57;;;;;;;;;;;;;;;20.34;54.78;100084.78;2061130;28;20734;-38
2021/11/13 04:28:58;;;;;;;;;;;;;;;20.34;54.84;100082.03;2061394;28;19921;-38
2021/11/13 04:29:58;;;;;;;;;;;;;;;20.34;54.85;100071.09;2060205;28;19917;-38
2021/11/13 04:30:58;;;;;;;;;;;;;;;20.34;54.76;100079.31;2060074;28;20543;-38
2021/11/13 04:31:59;;;;;;;;;;;;;;;20.35;54.67;100078.28;2060478;28;19917;-38
2021/11/13 04:32:59;;;;;;;;;;;;;;;20.34;54.81;100071.94;2061419;28;20316;-38
2021/11/13 04:34:01;;;;;;;;;;;;;;;20.35;54.64;100078.28;2060405;28;19940;-38
2021/11/13 04:35:14;;;;;;;;;;;;;;;20.36;54.82;100082.75;2054651;28;19925;-37
2021/11/13 04:36:30;;;;;;;;;;;;;;;20.35;54.84;100084.59;2060868;28;20389;-38
2021/11/13 04:37:30;;;;;;;;;;;;;;;20.35;54.67;100078.28;2058063;28;19917;-38
2021/11/13 04:38:31;;;;;;;;;;;;;;;20.35;54.85;100083.75;2061062;28;19979;-38
2021/11/13 04:39:31;;;;;;;;;;;;;;;20.36;54.71;100074.53;2061231;28;19918;-38
2021/11/13 04:40:35;;;;;;;;;;;;;;;20.36;54.71;100082.75;2061138;28;19936;-38
2021/11/13 04:41:35;;;;;;;;;;;;;;;20.36;54.63;100088.22;2062625;28;19963;-38
2021/11/13 04:42:36;;;;;;;;;;;;;;;20.34;54.86;100088.38;2068017;28;20007;-38
2021/11/13 04:43:36;;;;;;;;;;;;;;;20.35;54.88;100087.34;2061664;28;19928;-38
2021/11/13 04:44:37;;;;;;;;;;;;;;;20.36;54.66;100090.97;2062174;28;20418;-38
2021/11/13 04:45:38;;;;;;;;;;;;;;;20.36;54.57;100090.97;2059163;28;19920;-38
2021/11/13 04:46:38;;;;;;;;;;;;;;;20.35;54.90;100097.44;2059520;28;20361;-38
2021/11/13 04:47:38;;;;;;;;;;;;;;;20.35;54.84;100100.19;2063567;28;19921;-38
2021/11/13 04:48:39;;;;;;;;;;;;;;;20.35;54.66;100101.03;2064364;28;20291;-38
2021/11/13 04:49:39;;;;;;;;;;;;;;;20.35;54.65;100105.66;2063834;28;19924;-38
2021/11/13 04:50:40;;;;;;;;;;;;;;;20.34;54.91;100104.78;2060109;28;19948;-38
2021/11/13 04:51:40;;;;;;;;;;;;;;;20.34;54.81;100109.41;2061390;28;21126;-38
2021/11/13 04:52:41;;;;;;;;;;;;;;;20.33;54.73;100102.19;2057448;28;20426;-41
2021/11/13 04:53:42;;;;;;;;;;;;;;;20.34;54.82;100098.47;2058566;28;20344;-38
2021/11/13 04:54:42;;;;;;;;;;;;;;;20.33;54.76;100096.72;2060466;28;19917;-38
2021/11/13 04:55:42;;;;;;;;;;;;;;;20.31;54.81;100087.84;2059923;28;19924;-38
2021/11/13 04:56:43;;;;;;;;;;;;;;;20.32;54.93;100086.81;2054417;28;20344;-38
2021/11/13 04:57:43;;;;;;;;;;;;;;;20.32;54.85;100089.53;2064365;28;20000;-38
2021/11/13 04:58:43;;;;;;;;;;;;;;;20.32;54.95;100086.81;2061234;28;20641;-38
2021/11/13 04:59:44;;;;;;;;;;;;;;;20.30;54.82;100081.47;2061389;28;20336;-38
2021/11/13 05:00:44;;;;;;;;;;;;;;;20.29;54.82;100079.78;2058256;28;20252;-38
2021/11/13 05:01:44;;;;;;;;;;;;;;;20.30;55.00;100080.63;2059343;28;20726;-38
2021/11/13 05:02:45;;;;;;;;;;;;;;;20.29;54.86;100076.19;2063252;28;20421;-38
2021/11/13 05:03:45;;;;;;;;;;;;;;;20.29;55.10;100078.94;2061856;28;19988;-38
2021/11/13 05:04:46;;;;;;;;;;;;;;;20.28;54.90;100082.66;2060842;28;20239;-38
2021/11/13 05:05:46;;;;;;;;;;;;;;;20.26;55.09;100077.38;2062293;28;20340;-38
2021/11/13 05:06:47;;;;;;;;;;;;;;;20.28;55.16;100077.19;2059071;28;19917;-38
2021/11/13 05:07:47;;;;;;;;;;;;;;;20.28;54.92;100082.66;2060912;28;19928;-38
2021/11/13 05:08:48;;;;;;;;;;;;;;;20.28;54.89;100079.91;2057916;28;19996;-38
2021/11/13 05:09:49;;;;;;;;;;;;;;;20.26;55.18;100080.09;2054296;28;20368;-38
2021/11/13 05:10:50;;;;;;;;;;;;;;;20.25;55.15;100078.34;2056446;28;19924;-38
2021/11/13 05:11:50;;;;;;;;;;;;;;;20.25;55.11;100077.50;2065042;28;20837;-38
2021/11/13 05:12:50;;;;;;;;;;;;;;;20.24;55.07;100073.91;2061450;28;19917;-38